Time;durP1;ratioP1;P1;durP2;ratioP2;P2;SDS_P1;SDS_P2;PMS_P1;PMS_P2;Temp;Humidity;BMP_temperature;BMP_pressure;BME280_temperature;BME280_humidity;BME280_pressure;Samples;Min_cycle;Max_cycle;Signal;HPM_P1;HPM_P2
2021/05/23 00:00:11;;;;;;;15.63;7.88;;;9.80;92.80;;;;;;5059173;28;20071;-36
2021/05/23 00:02:37;;;;;;;15.35;8.73;;;9.90;92.70;;;;;;5058307;28;20025;-35
2021/05/23 00:05:05;;;;;;;13.55;7.32;;;9.90;92.60;;;;;;5060043;28;20130;-35
2021/05/23 00:07:36;;;;;;;16.10;10.00;;;9.90;92.60;;;;;;5058305;28;20025;-35
2021/05/23 00:10:04;;;;;;;16.02;8.70;;;9.90;92.60;;;;;;5059342;28;20052;-35
2021/05/23 00:12:29;;;;;;;22.60;11.00;;;9.90;92.80;;;;;;5059315;28;20425;-35
2021/05/23 00:14:55;;;;;;;14.20;9.43;;;9.90;93.00;;;;;;5059191;28;20028;-35
2021/05/23 00:17:21;;;;;;;15.15;8.30;;;9.80;92.60;;;;;;5057239;28;20071;-40
2021/05/23 00:19:46;;;;;;;14.30;8.68;;;9.90;92.10;;;;;;5056035;28;20032;-35
2021/05/23 00:22:12;;;;;;;12.15;8.98;;;9.90;91.80;;;;;;5055770;28;20465;-35
2021/05/23 00:24:38;;;;;;;14.30;9.30;;;9.90;92.10;;;;;;5055735;28;20053;-35
2021/05/23 00:27:04;;;;;;;18.92;11.07;;;9.80;92.50;;;;;;5055637;28;20053;-35
2021/05/23 00:29:29;;;;;;;15.13;10.68;;;9.80;92.70;;;;;;5056041;28;20032;-36
2021/05/23 00:31:55;;;;;;;19.98;11.23;;;9.90;92.80;;;;;;5055753;28;20025;-35
2021/05/23 00:34:21;;;;;;;17.50;11.20;;;9.80;92.80;;;;;;5055402;28;20033;-35
2021/05/23 00:36:46;;;;;;;19.88;11.48;;;9.80;92.80;;;;;;5055937;28;20033;-35
2021/05/23 00:39:12;;;;;;;12.98;10.23;;;9.80;93.00;;;;;;5055595;28;20335;-35
2021/05/23 00:41:38;;;;;;;15.77;10.73;;;9.80;93.00;;;;;;5054418;28;20112;-35
2021/05/23 00:44:04;;;;;;;12.98;9.82;;;9.80;93.20;;;;;;5037964;28;20037;-34
2021/05/23 00:46:30;;;;;;;17.88;11.43;;;9.80;93.50;;;;;;5055566;28;20025;-35
2021/05/23 00:48:55;;;;;;;16.45;12.55;;;9.70;93.60;;;;;;5055757;28;20111;-34
2021/05/23 00:51:21;;;;;;;19.70;12.05;;;9.80;93.80;;;;;;5056269;28;20052;-34
2021/05/23 00:53:47;;;;;;;15.35;11.23;;;9.70;93.70;;;;;;5056483;28;20044;-37
2021/05/23 00:56:17;;;;;;;19.23;12.85;;;9.70;93.90;;;;;;5056460;28;20025;-34
2021/05/23 00:58:43;;;;;;;16.27;12.25;;;9.70;93.80;;;;;;5055778;28;20032;-35
2021/05/23 01:01:13;;;;;;;20.05;11.73;;;9.80;94.00;;;;;;5054120;28;20068;-35
2021/05/23 01:03:51;;;;;;;14.68;10.20;;;9.80;93.40;;;;;;5055578;28;20413;-34
2021/05/23 01:06:16;;;;;;;15.10;9.85;;;9.80;93.20;;;;;;5055771;28;20017;-35
2021/05/23 01:08:42;;;;;;;15.75;10.10;;;9.80;93.10;;;;;;5055507;28;20032;-34
2021/05/23 01:11:17;;;;;;;13.38;9.43;;;9.80;93.20;;;;;;5053686;28;20033;-35
2021/05/23 01:13:58;;;;;;;12.98;9.45;;;9.70;93.00;;;;;;5054878;28;20029;-35
2021/05/23 01:16:46;;;;;;;14.05;8.20;;;9.70;93.00;;;;;;5055075;28;20036;-35
2021/05/23 01:19:48;;;;;;;12.80;8.63;;;9.70;92.30;;;;;;5057892;28;20404;-34
2021/05/23 01:22:17;;;;;;;10.35;7.68;;;9.70;92.90;;;;;;5054925;28;20029;-35
2021/05/23 01:24:59;;;;;;;16.80;8.48;;;9.60;92.40;;;;;;5055199;28;20021;-35
2021/05/23 01:27:33;;;;;;;10.65;7.97;;;9.60;92.70;;;;;;5054125;28;20360;-35
2021/05/23 01:29:59;;;;;;;14.20;8.50;;;9.60;92.70;;;;;;5054763;28;20440;-35
2021/05/23 01:32:25;;;;;;;9.95;8.38;;;9.60;92.80;;;;;;5055200;28;20060;-34
2021/05/23 01:34:52;;;;;;;17.08;9.63;;;9.50;93.00;;;;;;5054697;28;20063;-36
2021/05/23 01:37:23;;;;;;;13.27;10.07;;;9.60;93.10;;;;;;5055027;28;20037;-34
2021/05/23 01:39:49;;;;;;;14.52;8.80;;;9.70;93.00;;;;;;5054923;28;20115;-34
2021/05/23 01:42:16;;;;;;;13.82;9.65;;;9.50;93.20;;;;;;5055317;28;20055;-34
2021/05/23 01:44:41;;;;;;;13.60;10.02;;;9.60;93.30;;;;;;5054500;28;20408;-34
2021/05/23 01:47:07;;;;;;;13.32;9.82;;;9.60;93.40;;;;;;5053204;28;20075;-34
2021/05/23 01:49:33;;;;;;;15.30;10.40;;;9.60;93.10;;;;;;5054375;28;20051;-36
2021/05/23 01:52:08;;;;;;;15.25;10.02;;;9.70;93.20;;;;;;5054332;28;20375;-34
2021/05/23 01:54:34;;;;;;;17.15;9.50;;;9.60;93.20;;;;;;5053236;28;20028;-34
2021/05/23 01:56:59;;;;;;;19.35;10.50;;;9.60;93.30;;;;;;5054333;28;20029;-35
2021/05/23 01:59:25;;;;;;;16.90;11.23;;;9.70;93.10;;;;;;5053029;28;20025;-35
2021/05/23 02:01:51;;;;;;;17.08;10.57;;;9.60;93.30;;;;;;5054410;28;20388;-35
2021/05/23 02:04:16;;;;;;;17.70;10.63;;;9.70;93.30;;;;;;5054051;28;20025;-34
2021/05/23 02:06:42;;;;;;;22.45;12.45;;;9.70;93.20;;;;;;5052809;28;20102;-35
2021/05/23 02:09:08;;;;;;;17.98;12.30;;;9.70;93.20;;;;;;5054139;28;20028;-35
2021/05/23 02:11:34;;;;;;;22.10;12.90;;;9.70;93.20;;;;;;5054142;28;20036;-35
2021/05/23 02:13:59;;;;;;;15.50;12.00;;;9.70;93.20;;;;;;5053737;28;20427;-35
2021/05/23 02:16:25;;;;;;;25.52;12.75;;;9.60;93.20;;;;;;5054050;28;20025;-35
2021/05/23 02:18:51;;;;;;;16.85;11.38;;;9.60;93.30;;;;;;5052873;28;20359;-35
2021/05/23 02:21:16;;;;;;;19.83;12.85;;;9.60;93.30;;;;;;5053985;28;20036;-35
2021/05/23 02:23:57;;;;;;;16.40;11.05;;;9.50;93.50;;;;;;5054166;28;20021;-35
2021/05/23 02:26:23;;;;;;;14.55;12.13;;;9.60;93.50;;;;;;5054215;28;20108;-35
2021/05/23 02:28:50;;;;;;;19.13;12.75;;;9.60;93.20;;;;;;5053573;28;20033;-35
2021/05/23 02:31:16;;;;;;;21.90;12.50;;;9.50;93.50;;;;;;5053508;28;20103;-35
2021/05/23 02:33:42;;;;;;;15.38;11.90;;;9.60;93.40;;;;;;5053356;28;20532;-36
2021/05/23 02:36:08;;;;;;;22.20;14.45;;;9.60;93.60;;;;;;5053691;28;20057;-35
2021/05/23 02:38:34;;;;;;;22.50;14.57;;;9.50;93.50;;;;;;5053188;28;20029;-35
2021/05/23 02:40:59;;;;;;;19.88;12.80;;;9.50;93.70;;;;;;5052930;28;20040;-35
2021/05/23 02:43:25;;;;;;;21.65;14.15;;;9.50;93.70;;;;;;5052013;28;20373;-35
2021/05/23 02:45:51;;;;;;;20.23;12.88;;;9.50;93.80;;;;;;5053521;28;20094;-35
2021/05/23 02:48:17;;;;;;;23.10;13.27;;;9.50;93.70;;;;;;5053455;28;20108;-35
2021/05/23 02:50:52;;;;;;;18.27;12.50;;;9.60;93.70;;;;;;5053033;28;20071;-35
2021/05/23 02:53:18;;;;;;;23.30;13.25;;;9.60;93.50;;;;;;5053321;28;20124;-35
2021/05/23 02:55:45;;;;;;;15.88;12.20;;;9.70;93.40;;;;;;5053218;28;20406;-35
2021/05/23 02:58:12;;;;;;;20.90;13.70;;;9.70;93.30;;;;;;5052947;28;20029;-35
2021/05/23 03:00:38;;;;;;;20.92;13.70;;;9.60;93.60;;;;;;5053311;28;20025;-35
2021/05/23 03:03:04;;;;;;;26.40;14.30;;;9.70;93.70;;;;;;5053531;28;20449;-35
2021/05/23 03:05:30;;;;;;;14.88;11.73;;;9.60;93.70;;;;;;5053413;28;20469;-35
2021/05/23 03:07:57;;;;;;;22.15;15.35;;;9.50;93.70;;;;;;5053195;28;20028;-35
2021/05/23 03:10:25;;;;;;;17.45;12.70;;;9.50;94.00;;;;;;5053748;28;20029;-35
2021/05/23 03:12:52;;;;;;;18.58;12.98;;;9.60;94.00;;;;;;5052659;28;20025;-35
2021/05/23 03:15:20;;;;;;;21.02;13.75;;;9.70;94.00;;;;;;5053356;28;20079;-35
2021/05/23 03:17:46;;;;;;;21.30;13.95;;;9.50;93.90;;;;;;5054100;28;20453;-35
2021/05/23 03:20:14;;;;;;;25.92;16.10;;;9.60;94.20;;;;;;5053989;28;20060;-34
2021/05/23 03:22:40;;;;;;;18.95;14.48;;;9.60;94.00;;;;;;5051993;28;20139;-34
2021/05/23 03:25:09;;;;;;;19.02;13.13;;;9.50;94.20;;;;;;5053364;28;20047;-34
2021/05/23 03:27:35;;;;;;;18.60;13.75;;;9.60;94.20;;;;;;5053411;28;20453;-34
2021/05/23 03:30:02;;;;;;;25.10;15.57;;;9.70;93.90;;;;;;5053724;28;20017;-35
2021/05/23 03:32:28;;;;;;;20.95;14.25;;;9.60;94.00;;;;;;5053308;28;20074;-35
2021/05/23 03:34:53;;;;;;;20.42;14.07;;;9.60;94.00;;;;;;5052860;28;20485;-35
2021/05/23 03:37:19;;;;;;;21.88;14.38;;;9.50;94.20;;;;;;5054378;28;20029;-35
2021/05/23 03:39:45;;;;;;;20.80;14.38;;;9.60;93.90;;;;;;5053820;28;20025;-35
2021/05/23 03:42:11;;;;;;;27.42;16.65;;;9.60;93.90;;;;;;5052814;28;20047;-35
2021/05/23 03:44:39;;;;;;;24.48;16.65;;;9.50;94.20;;;;;;5053776;28;20040;-35
2021/05/23 03:47:05;;;;;;;26.27;17.75;;;9.50;94.20;;;;;;5053943;28;20035;-36
2021/05/23 03:49:30;;;;;;;24.17;17.13;;;9.50;94.30;;;;;;5053729;28;20080;-35
2021/05/23 03:51:56;;;;;;;25.42;16.40;;;9.50;94.10;;;;;;5054251;28;20049;-35
2021/05/23 03:54:22;;;;;;;27.92;18.80;;;9.50;94.40;;;;;;5056222;28;20021;-35
2021/05/23 03:56:48;;;;;;;26.10;17.45;;;9.50;94.20;;;;;;5057445;28;20029;-36
2021/05/23 03:59:13;;;;;;;30.38;17.48;;;9.60;94.00;;;;;;5057147;28;20104;-35
2021/05/23 04:01:39;;;;;;;24.83;17.88;;;9.60;94.00;;;;;;5057127;28;20029;-36
2021/05/23 04:04:07;;;;;;;28.40;18.92;;;9.70;93.90;;;;;;5057528;28;20575;-35
2021/05/23 04:06:32;;;;;;;32.75;17.67;;;9.70;93.70;;;;;;5057800;28;20077;-36
2021/05/23 04:08:58;;;;;;;27.83;18.63;;;9.60;93.80;;;;;;5057555;28;20452;-35
2021/05/23 04:11:30;;;;;;;32.85;19.17;;;9.60;94.00;;;;;;5057329;28;20071;-36
2021/05/23 04:13:56;;;;;;;30.10;19.35;;;9.70;94.00;;;;;;5057376;28;20507;-36
2021/05/23 04:16:22;;;;;;;26.77;19.27;;;9.70;93.90;;;;;;5057397;28;20060;-36
2021/05/23 04:18:47;;;;;;;26.30;19.13;;;9.80;93.70;;;;;;5056787;28;20021;-35
2021/05/23 04:21:14;;;;;;;28.50;18.83;;;9.60;93.80;;;;;;5056993;28;20513;-36
2021/05/23 04:23:40;;;;;;;27.58;19.17;;;9.70;93.90;;;;;;5057221;28;20021;-35
2021/05/23 04:26:06;;;;;;;27.05;19.23;;;9.70;93.80;;;;;;5055517;28;20380;-35
2021/05/23 04:28:32;;;;;;;28.38;19.65;;;9.60;94.00;;;;;;5057107;28;20075;-35
2021/05/23 04:30:58;;;;;;;36.80;22.58;;;9.80;93.70;;;;;;5057168;28;20032;-35
2021/05/23 04:33:24;;;;;;;34.22;21.17;;;9.70;94.00;;;;;;5057137;28;20481;-36
2021/05/23 04:35:50;;;;;;;31.90;19.80;;;9.70;93.80;;;;;;5057185;28;20029;-35
2021/05/23 04:38:16;;;;;;;29.48;19.88;;;9.80;93.80;;;;;;5038993;28;20035;-35
2021/05/23 04:40:42;;;;;;;30.35;19.63;;;9.80;93.70;;;;;;5057382;28;20021;-35
2021/05/23 04:43:08;;;;;;;34.33;20.13;;;9.80;93.70;;;;;;5056222;28;20024;-35
2021/05/23 04:45:37;;;;;;;30.55;19.23;;;9.70;93.80;;;;;;5056521;28;20419;-35
2021/05/23 04:48:04;;;;;;;25.90;19.45;;;9.80;93.50;;;;;;5056657;28;20060;-36
2021/05/23 04:50:30;;;;;;;34.25;20.38;;;9.80;93.60;;;;;;5056668;28;20032;-35
2021/05/23 04:52:56;;;;;;;34.95;21.92;;;9.80;93.30;;;;;;5056717;28;20461;-35
2021/05/23 04:55:22;;;;;;;28.48;18.52;;;9.80;93.40;;;;;;5056589;28;20615;-35
2021/05/23 04:57:48;;;;;;;33.78;20.25;;;9.80;93.60;;;;;;5056559;28;20029;-36
2021/05/23 05:00:14;;;;;;;29.60;19.23;;;9.80;93.60;;;;;;5056042;28;20455;-36
2021/05/23 05:02:41;;;;;;;33.83;21.58;;;9.80;93.30;;;;;;5055260;28;20036;-35
2021/05/23 05:05:10;;;;;;;30.67;21.17;;;9.80;93.40;;;;;;5055970;28;20461;-35
2021/05/23 05:07:35;;;;;;;38.78;21.70;;;10.00;93.60;;;;;;5055626;28;20013;-35
2021/05/23 05:10:02;;;;;;;29.95;20.80;;;10.10;92.90;;;;;;5055304;28;20029;-35
2021/05/23 05:12:28;;;;;;;33.13;20.98;;;9.90;93.20;;;;;;5055555;28;20021;-35
2021/05/23 05:14:54;;;;;;;33.72;21.75;;;9.90;93.30;;;;;;5055930;28;20536;-35
2021/05/23 05:17:19;;;;;;;28.05;21.10;;;9.80;93.10;;;;;;5055545;28;20468;-35
2021/05/23 05:19:45;;;;;;;29.90;22.08;;;9.90;93.40;;;;;;5055265;28;20025;-36
2021/05/23 05:22:11;;;;;;;38.88;23.73;;;10.00;93.20;;;;;;5055128;28;20029;-36
2021/05/23 05:24:36;;;;;;;30.92;20.83;;;10.00;93.10;;;;;;5054982;28;20063;-35
2021/05/23 05:27:02;;;;;;;35.88;20.50;;;10.00;92.80;;;;;;5055373;28;20107;-35
2021/05/23 05:29:28;;;;;;;29.35;19.23;;;10.00;92.90;;;;;;5053776;28;20032;-35
2021/05/23 05:31:54;;;;;;;30.30;19.75;;;10.10;92.90;;;;;;5053619;28;20025;-35
2021/05/23 05:34:20;;;;;;;29.67;20.63;;;10.20;92.60;;;;;;5055193;28;20024;-36
2021/05/23 05:36:45;;;;;;;30.42;20.35;;;10.20;92.30;;;;;;5054519;28;20039;-35
2021/05/23 05:39:11;;;;;;;30.83;18.58;;;10.20;92.00;;;;;;5054902;28;20025;-36
2021/05/23 05:41:37;;;;;;;32.53;20.90;;;10.20;92.30;;;;;;5054414;28;20072;-36
2021/05/23 05:44:03;;;;;;;30.45;18.83;;;10.20;92.10;;;;;;5054457;28;20029;-35
2021/05/23 05:46:29;;;;;;;30.77;19.52;;;10.10;92.20;;;;;;5053126;28;20032;-35
2021/05/23 05:48:54;;;;;;;31.80;17.70;;;10.10;92.50;;;;;;5054438;28;20469;-35
2021/05/23 05:51:20;;;;;;;33.97;20.50;;;10.20;92.20;;;;;;5054088;28;20079;-35
2021/05/23 05:53:46;;;;;;;25.80;18.75;;;10.30;92.00;;;;;;5054258;28;20456;-35
2021/05/23 05:56:12;;;;;;;30.58;17.95;;;10.30;91.20;;;;;;5054204;28;20515;-35
2021/05/23 05:58:37;;;;;;;25.35;17.80;;;10.30;91.30;;;;;;5054495;28;20159;-36
2021/05/23 06:01:03;;;;;;;31.98;20.33;;;10.30;91.50;;;;;;5054256;28;20071;-35
2021/05/23 06:03:29;;;;;;;22.77;16.27;;;10.30;91.70;;;;;;5054258;28;20495;-35
2021/05/23 06:05:54;;;;;;;30.55;19.13;;;10.30;91.50;;;;;;5053976;28;20021;-35
2021/05/23 06:08:21;;;;;;;31.30;17.65;;;10.30;91.80;;;;;;5053975;28;20021;-35
2021/05/23 06:10:48;;;;;;;30.58;17.48;;;10.20;92.50;;;;;;5054443;28;20487;-35
2021/05/23 06:13:14;;;;;;;26.52;17.27;;;10.20;92.50;;;;;;5054052;28;20465;-35
2021/05/23 06:15:39;;;;;;;25.30;16.08;;;10.10;92.70;;;;;;5053062;28;20039;-34
2021/05/23 06:18:05;;;;;;;21.52;15.73;;;10.00;92.50;;;;;;5053947;28;20032;-37
2021/05/23 06:20:31;;;;;;;21.25;12.07;;;10.10;92.40;;;;;;5054161;28;20428;-34
2021/05/23 06:22:56;;;;;;;23.02;12.63;;;10.10;92.00;;;;;;5054022;28;20055;-34
2021/05/23 06:25:22;;;;;;;19.08;11.32;;;10.10;92.10;;;;;;5053960;28;20113;-35
2021/05/23 06:27:47;;;;;;;17.83;10.80;;;9.90;92.40;;;;;;5053756;28;20021;-35
2021/05/23 06:30:14;;;;;;;21.70;12.93;;;10.00;92.60;;;;;;5052715;28;20036;-35
2021/05/23 06:32:40;;;;;;;18.95;12.48;;;10.00;92.40;;;;;;5053596;28;20059;-35
2021/05/23 06:35:06;;;;;;;22.70;12.95;;;10.00;92.60;;;;;;5053493;28;20056;-35
2021/05/23 06:37:32;;;;;;;20.90;12.38;;;10.00;92.30;;;;;;5053977;28;20029;-35
2021/05/23 06:39:57;;;;;;;18.70;12.45;;;10.10;91.60;;;;;;5053797;28;20055;-35
2021/05/23 06:42:23;;;;;;;19.20;13.38;;;10.10;91.70;;;;;;5054035;28;20111;-35
2021/05/23 06:44:49;;;;;;;23.45;13.15;;;10.00;92.30;;;;;;5053264;28;20021;-35
2021/05/23 06:47:14;;;;;;;21.88;10.80;;;10.00;92.00;;;;;;5054216;28;20021;-35
2021/05/23 06:49:40;;;;;;;18.30;11.07;;;9.90;92.10;;;;;;5054211;28;20453;-34
2021/05/23 06:52:07;;;;;;;19.50;11.32;;;9.80;92.10;;;;;;5053665;28;20083;-36
2021/05/23 06:54:32;;;;;;;19.85;11.77;;;9.80;92.20;;;;;;5053852;28;20480;-35
2021/05/23 06:56:58;;;;;;;14.30;7.85;;;9.70;92.70;;;;;;5053706;28;20025;-35
2021/05/23 06:59:24;;;;;;;19.10;10.70;;;9.70;92.40;;;;;;5053926;28;20029;-36
2021/05/23 07:01:50;;;;;;;17.27;10.35;;;9.70;92.30;;;;;;5053591;28;20052;-35
2021/05/23 07:04:16;;;;;;;15.10;9.82;;;9.70;92.20;;;;;;5053318;28;20074;-36
2021/05/23 07:06:42;;;;;;;11.30;7.95;;;9.80;91.60;;;;;;5053370;28;20145;-35
2021/05/23 07:09:08;;;;;;;12.38;10.00;;;9.80;90.70;;;;;;5053788;28;20120;-34
2021/05/23 07:11:33;;;;;;;15.85;9.10;;;9.80;90.60;;;;;;5053158;28;20021;-35
2021/05/23 07:13:59;;;;;;;12.30;8.57;;;9.90;90.80;;;;;;5053713;28;20483;-35
2021/05/23 07:16:25;;;;;;;12.45;7.95;;;9.90;91.20;;;;;;5053606;28;20032;-35
2021/05/23 07:18:50;;;;;;;19.90;10.07;;;9.90;90.60;;;;;;5053126;28;20082;-35
2021/05/23 07:21:16;;;;;;;24.40;9.93;;;9.80;91.30;;;;;;5053477;28;20040;-35
2021/05/23 07:23:42;;;;;;;19.63;8.75;;;9.90;91.30;;;;;;5053423;28;20100;-35
2021/05/23 07:26:07;;;;;;;22.85;10.13;;;9.80;90.70;;;;;;5052953;28;20021;-36
2021/05/23 07:28:33;;;;;;;15.25;7.20;;;9.80;90.70;;;;;;5055890;28;20028;-35
2021/05/23 07:31:00;;;;;;;15.88;7.80;;;9.80;90.40;;;;;;5057412;28;20025;-36
2021/05/23 07:33:26;;;;;;;12.57;6.78;;;9.80;90.90;;;;;;5057176;28;20025;-37
2021/05/23 07:35:52;;;;;;;12.05;7.70;;;9.80;90.20;;;;;;5057238;28;20472;-36
2021/05/23 07:38:18;;;;;;;12.40;6.50;;;9.90;89.80;;;;;;5056948;28;20103;-36
2021/05/23 07:40:44;;;;;;;7.60;4.13;;;9.90;88.90;;;;;;5057338;28;20469;-35
2021/05/23 07:43:10;;;;;;;6.22;4.20;;;10.10;86.70;;;;;;5056856;28;20025;-35
2021/05/23 07:45:36;;;;;;;11.20;5.18;;;10.30;86.60;;;;;;5056671;28;20025;-35
2021/05/23 07:48:01;;;;;;;11.55;4.00;;;10.40;85.40;;;;;;5057072;28;20032;-35
2021/05/23 07:50:27;;;;;;;10.20;4.03;;;10.80;85.40;;;;;;5057207;28;20031;-35
2021/05/23 07:52:53;;;;;;;7.53;5.15;;;10.40;86.00;;;;;;5056817;28;20045;-36
2021/05/23 07:55:19;;;;;;;6.55;3.72;;;10.50;85.00;;;;;;5056897;28;20053;-35
2021/05/23 07:57:46;;;;;;;12.27;3.97;;;10.70;84.00;;;;;;5056819;28;20385;-36
2021/05/23 08:00:12;;;;;;;9.98;4.47;;;10.80;83.50;;;;;;5056423;28;20063;-35
2021/05/23 08:02:38;;;;;;;10.13;3.75;;;11.30;81.80;;;;;;5056464;28;20025;-35
2021/05/23 08:05:05;;;;;;;7.80;3.97;;;11.70;81.00;;;;;;5056313;28;20057;-35
2021/05/23 08:07:31;;;;;;;13.55;4.88;;;12.00;78.50;;;;;;5057353;28;20029;-35
2021/05/23 08:09:56;;;;;;;10.00;5.07;;;11.90;78.80;;;;;;5056244;28;20035;-35
2021/05/23 08:12:22;;;;;;;6.75;3.60;;;11.50;78.70;;;;;;5056558;28;20053;-35
2021/05/23 08:14:48;;;;;;;10.13;3.67;;;11.60;78.50;;;;;;5056177;28;20060;-34
2021/05/23 08:17:14;;;;;;;7.63;3.28;;;11.90;77.80;;;;;;5056153;28;20029;-38
2021/05/23 08:19:40;;;;;;;8.32;3.20;;;12.00;78.70;;;;;;5056767;28;20074;-37
2021/05/23 08:22:05;;;;;;;4.45;2.80;;;12.30;75.80;;;;;;5056355;28;20460;-37
2021/05/23 08:24:32;;;;;;;9.00;3.33;;;12.50;75.60;;;;;;5056443;28;20092;-35
2021/05/23 08:26:59;;;;;;;16.73;4.72;;;12.40;73.80;;;;;;5055868;28;20032;-36
2021/05/23 08:29:27;;;;;;;7.30;3.38;;;12.10;74.90;;;;;;5055938;28;20036;-35
2021/05/23 08:31:52;;;;;;;4.47;1.67;;;12.20;75.90;;;;;;5056211;28;20029;-36
2021/05/23 08:34:18;;;;;;;20.83;2.97;;;12.40;72.80;;;;;;5056220;28;20028;-35
2021/05/23 08:36:44;;;;;;;5.25;2.08;;;12.50;74.00;;;;;;5056467;28;20055;-35
2021/05/23 08:39:09;;;;;;;7.82;2.42;;;13.30;70.70;;;;;;5054783;28;20471;-35
2021/05/23 08:41:35;;;;;;;9.77;1.80;;;13.70;69.80;;;;;;5055490;28;20090;-34
2021/05/23 08:44:01;;;;;;;4.70;1.58;;;14.40;63.30;;;;;;5054277;28;20017;-34
2021/05/23 08:46:29;;;;;;;11.13;2.80;;;14.00;62.20;;;;;;5055484;28;20036;-35
2021/05/23 08:48:56;;;;;;;4.78;1.95;;;13.30;65.40;;;;;;5055585;28;20017;-35
2021/05/23 08:51:23;;;;;;;5.15;1.40;;;13.40;63.40;;;;;;5055659;28;20443;-35
2021/05/23 08:53:48;;;;;;;6.78;1.70;;;13.50;61.70;;;;;;5054951;28;20025;-35
2021/05/23 08:56:14;;;;;;;7.30;1.65;;;12.80;63.40;;;;;;5055430;28;20032;-36
2021/05/23 08:58:39;;;;;;;6.63;1.77;;;12.80;62.20;;;;;;5055442;28;20025;-37
2021/05/23 09:01:05;;;;;;;4.88;1.52;;;13.40;59.40;;;;;;5055039;28;20381;-35
2021/05/23 09:03:31;;;;;;;6.20;1.02;;;13.20;60.30;;;;;;5055443;28;20017;-35
2021/05/23 09:05:56;;;;;;;7.18;1.20;;;13.50;55.50;;;;;;5055591;28;20025;-35
2021/05/23 09:08:26;;;;;;;6.40;1.58;;;14.20;54.60;;;;;;5055298;28;20381;-36
2021/05/23 09:10:54;;;;;;;5.75;1.15;;;14.90;49.70;;;;;;5055627;28;20025;-37
2021/05/23 09:13:36;;;;;;;6.47;1.40;;;15.20;49.70;;;;;;5054851;28;20016;-35
2021/05/23 09:16:10;;;;;;;6.32;1.23;;;15.30;48.50;;;;;;5055192;28;20484;-36
2021/05/23 09:18:43;;;;;;;2.45;1.10;;;14.50;49.80;;;;;;5054885;28;20100;-36
2021/05/23 09:21:10;;;;;;;3.40;1.50;;;14.90;49.70;;;;;;5054582;28;20032;-36
2021/05/23 09:23:47;;;;;;;7.60;2.13;;;14.40;50.40;;;;;;5054789;28;20029;-36
2021/05/23 09:26:40;;;;;;;11.20;3.25;;;14.00;50.30;;;;;;5054484;28;20029;-36
2021/05/23 09:29:18;;;;;;;6.25;2.22;;;13.70;49.50;;;;;;5054427;28;20021;-37
2021/05/23 09:31:47;;;;;;;4.32;1.25;;;13.10;52.10;;;;;;5054960;28;20071;-36
2021/05/23 09:34:21;;;;;;;4.18;1.35;;;13.30;51.70;;;;;;5053171;28;20469;-35
2021/05/23 09:36:48;;;;;;;3.83;1.13;;;13.20;52.90;;;;;;5055038;28;20558;-36
2021/05/23 09:39:14;;;;;;;5.78;1.00;;;13.30;53.10;;;;;;5054758;28;20147;-36
2021/05/23 09:41:41;;;;;;;3.63;1.17;;;13.50;51.60;;;;;;5054640;28;20537;-36
2021/05/23 09:44:22;;;;;;;4.30;1.60;;;13.70;52.10;;;;;;5054309;28;20025;-37
2021/05/23 09:46:54;;;;;;;9.43;1.38;;;13.30;52.90;;;;;;5054860;28;20033;-35
2021/05/23 09:49:20;;;;;;;6.10;1.50;;;13.30;52.90;;;;;;5054910;28;20052;-35
2021/05/23 09:51:54;;;;;;;14.38;3.28;;;13.20;51.20;;;;;;5054556;28;20057;-36
2021/05/23 09:54:21;;;;;;;6.35;1.70;;;13.80;49.00;;;;;;5053387;28;20031;-36
2021/05/23 09:56:47;;;;;;;5.97;1.20;;;14.60;47.50;;;;;;5054874;28;20100;-35
2021/05/23 09:59:24;;;;;;;3.35;1.45;;;14.70;47.60;;;;;;5055292;28;20040;-35
2021/05/23 10:01:51;;;;;;;6.80;2.15;;;14.20;49.50;;;;;;5054950;28;20037;-35
2021/05/23 10:04:21;;;;;;;5.22;1.30;;;14.10;49.00;;;;;;5054733;28;20017;-35
2021/05/23 10:07:08;;;;;;;8.55;2.15;;;14.50;47.60;;;;;;5054401;28;20544;-35
2021/05/23 10:09:36;;;;;;;2.53;1.17;;;15.30;45.10;;;;;;5054718;28;20035;-35
2021/05/23 10:12:03;;;;;;;3.20;1.27;;;14.90;46.40;;;;;;5054643;28;20033;-35
2021/05/23 10:14:29;;;;;;;4.03;1.00;;;13.90;48.80;;;;;;5054432;28;20025;-35
2021/05/23 10:16:56;;;;;;;4.20;1.13;;;13.80;47.30;;;;;;5054304;28;20036;-35
2021/05/23 10:19:24;;;;;;;3.67;1.27;;;14.60;45.50;;;;;;5054264;28;20032;-34
2021/05/23 10:21:52;;;;;;;5.15;1.10;;;15.00;43.50;;;;;;5054891;28;20021;-35
2021/05/23 10:24:25;;;;;;;7.82;2.08;;;15.20;43.30;;;;;;5055845;28;20153;-37
2021/05/23 10:26:55;;;;;;;4.95;2.08;;;14.70;44.20;;;;;;5054753;28;20096;-36
2021/05/23 10:29:22;;;;;;;6.15;2.10;;;14.20;46.20;;;;;;5055356;28;20025;-35
2021/05/23 10:31:48;;;;;;;2.78;0.90;;;14.60;44.90;;;;;;5053226;28;20029;-36
2021/05/23 10:34:14;;;;;;;4.53;1.15;;;15.40;41.90;;;;;;5054842;28;20031;-36
2021/05/23 10:36:43;;;;;;;6.60;2.08;;;15.50;42.00;;;;;;5054708;28;20024;-36
2021/05/23 10:39:14;;;;;;;7.38;1.55;;;16.30;40.20;;;;;;5054455;28;20033;-36
2021/05/23 10:41:41;;;;;;;4.20;0.90;;;15.70;41.70;;;;;;5053879;28;20033;-35
2021/05/23 10:44:10;;;;;;;3.25;1.50;;;14.90;44.30;;;;;;5054260;28;20024;-36
2021/05/23 10:46:56;;;;;;;4.00;1.00;;;15.10;44.90;;;;;;5054511;28;20055;-34
2021/05/23 10:49:21;;;;;;;3.33;0.90;;;15.00;45.30;;;;;;5053911;28;20029;-34
2021/05/23 10:51:55;;;;;;;6.53;1.98;;;14.70;45.30;;;;;;5053801;28;20072;-35
2021/05/23 10:54:21;;;;;;;5.60;1.13;;;14.30;47.60;;;;;;5054196;28;20052;-34
2021/05/23 10:57:02;;;;;;;2.30;1.33;;;14.30;46.80;;;;;;5053963;28;20362;-35
2021/05/23 10:59:30;;;;;;;6.22;1.38;;;13.80;47.70;;;;;;5054455;28;20025;-36
2021/05/23 11:01:56;;;;;;;8.50;1.13;;;14.50;45.50;;;;;;5053737;28;20427;-41
2021/05/23 11:04:41;;;;;;;4.70;1.00;;;14.90;44.50;;;;;;5053953;28;20096;-36
2021/05/23 11:07:11;;;;;;;7.10;2.17;;;15.90;44.10;;;;;;5053544;28;20036;-36
2021/05/23 11:09:37;;;;;;;3.78;0.98;;;16.00;42.90;;;;;;5053981;28;20133;-37
2021/05/23 11:12:08;;;;;;;7.38;1.55;;;16.30;42.70;;;;;;5053228;28;20108;-36
2021/05/23 11:14:34;;;;;;;4.43;1.38;;;15.20;44.00;;;;;;5053155;28;20056;-37
2021/05/23 11:17:00;;;;;;;3.33;1.50;;;15.00;45.20;;;;;;5053413;28;20039;-36
2021/05/23 11:19:30;;;;;;;11.15;1.58;;;14.50;46.40;;;;;;5054047;28;20029;-36
2021/05/23 11:21:58;;;;;;;1.27;0.80;;;14.30;46.80;;;;;;5053697;28;20025;-37
2021/05/23 11:24:29;;;;;;;4.00;1.30;;;14.10;48.20;;;;;;5053261;28;20029;-37
2021/05/23 11:26:56;;;;;;;5.85;1.42;;;14.20;47.90;;;;;;5053421;28;20025;-36
2021/05/23 11:29:24;;;;;;;6.07;1.75;;;14.00;48.60;;;;;;5053029;28;20020;-37
2021/05/23 11:31:51;;;;;;;5.40;1.40;;;14.20;48.70;;;;;;5054545;28;20040;-37
2021/05/23 11:34:20;;;;;;;4.85;1.30;;;14.90;46.90;;;;;;5053849;28;20025;-35
2021/05/23 11:36:47;;;;;;;6.72;1.17;;;15.90;44.40;;;;;;5054438;28;20067;-35
2021/05/23 11:39:15;;;;;;;8.45;1.73;;;16.30;42.80;;;;;;5054199;28;20037;-36
2021/05/23 11:41:49;;;;;;;6.57;1.38;;;15.30;44.00;;;;;;5053419;28;20021;-38
2021/05/23 11:44:16;;;;;;;4.75;1.50;;;14.50;45.40;;;;;;5053659;28;20033;-36
2021/05/23 11:46:52;;;;;;;2.30;1.10;;;14.30;46.80;;;;;;5056709;28;20021;-37
2021/05/23 11:49:26;;;;;;;5.53;1.10;;;14.10;47.40;;;;;;5053421;28;20029;-37
2021/05/23 11:51:57;;;;;;;2.88;1.30;;;13.80;48.10;;;;;;5053398;28;20512;-37
2021/05/23 11:54:23;;;;;;;4.90;1.33;;;14.00;47.40;;;;;;5053342;28;20029;-37
2021/05/23 11:56:48;;;;;;;7.25;1.33;;;14.50;46.20;;;;;;5051517;28;20182;-36
2021/05/23 11:59:14;;;;;;;8.55;1.77;;;15.40;44.40;;;;;;5052990;28;20032;-36
2021/05/23 12:01:47;;;;;;;4.78;1.20;;;16.30;42.20;;;;;;5053523;28;20021;-37
2021/05/23 12:04:14;;;;;;;5.13;1.30;;;16.10;42.30;;;;;;5053998;28;20112;-35
2021/05/23 12:06:51;;;;;;;2.30;0.88;;;16.10;39.70;;;;;;5053541;28;20028;-36
2021/05/23 12:09:31;;;;;;;3.25;0.85;;;16.70;38.30;;;;;;5054568;28;20021;-36
2021/05/23 12:11:59;;;;;;;2.03;1.27;;;15.80;39.10;;;;;;5054572;28;20039;-36
2021/05/23 12:14:26;;;;;;;6.20;1.35;;;16.60;37.90;;;;;;5057458;28;20111;-37
2021/05/23 12:17:03;;;;;;;4.30;1.20;;;16.20;38.60;;;;;;5057067;28;20033;-36
2021/05/23 12:19:48;;;;;;;2.67;0.93;;;16.40;37.60;;;;;;5057157;28;20053;-37
2021/05/23 12:22:18;;;;;;;5.70;1.67;;;16.80;37.20;;;;;;5058579;28;20499;-36
2021/05/23 12:24:44;;;;;;;6.70;1.58;;;17.20;36.80;;;;;;5058849;28;20031;-37
2021/05/23 12:27:16;;;;;;;5.85;2.65;;;17.00;37.50;;;;;;5057632;28;20032;-38
2021/05/23 12:29:42;;;;;;;3.72;1.15;;;16.10;38.50;;;;;;5057613;28;20427;-37
2021/05/23 12:32:07;;;;;;;3.55;0.90;;;15.50;39.80;;;;;;5055010;28;20067;-36
2021/05/23 12:34:42;;;;;;;6.28;2.00;;;15.30;40.50;;;;;;5056597;28;20429;-37
2021/05/23 12:37:07;;;;;;;8.60;2.47;;;15.00;41.40;;;;;;5057276;28;20503;-36
2021/05/23 12:39:33;;;;;;;4.90;1.40;;;15.40;41.10;;;;;;5056173;28;20029;-36
2021/05/23 12:42:03;;;;;;;4.88;1.30;;;15.60;40.30;;;;;;5056481;28;20477;-37